Dobrodošli na spletni strani vremenske postaje Senovo. Vse informacije so informativnega značaja, saj vremenska postaja ni del državne mreže meteoroloških postaj. AKTUALNIH OBVESTIL NI.


Sneg/Led Od: 21-02-2018 00:00 Do: 23-02-2018 23:59 Opozorilo za: Sneg/Led Stopnja: Rumena info button
Veter Od: 21-02-2018 00:00 Do: 22-02-2018 23:59 Opozorilo za: Veter Stopnja: Rumena info button

Pogled proti Armezu več informacij Pogled proti Armezu


Lisca več informacij Lisca


Radar strel več informacij blitzortung!


opozorilo za sneg/led več informacij rain snow radar


Obiščite še:

Template documentation
and downloads

And another site



Weather Underground, zgodovina - Tekstovno

Dnevni povzetek za Avgust 17, 2017 Enote:  Metrično    Angleško   Obe
« Predhodni Dan
Naslednji Dan »
Dnevni Tedenski Mesečni Letni Po meri
  Višja: Nižja: Povprečje:
Temperatura: -17.8 °C -8.2 °C -4.6 °C
Točka rosišča: -17.8 °C -10.2 °C -8.8 °C
Vlažnost: Humidity % 38 % 65 %
Hitrost vetra: 0 km/h 0 km/h 3.2 km/h
Sunki vetra: 0 km/h - -
Veter:- - South
Zračni tlak: 0 hPa 34428.8 hPa -
Padavine: 0 mm    
Historical Graphs
 
 
Tabelarni podarki za Avgust 17, 2017
Čas Temperatura Točka rosišča Zračni tlak Veter Hitrost vetra Sunki vetra Vlažnost Intenziteta padavin (urna)
-17.8 °C -17.8 °C 0 hPa Calm     Humidity % 0 mm
00:02 -4.9 °C -9.3 °C 34533.8 hPa ESE 8 km/h 24.3 km/h 61 % 0 mm
00:07 -4.9 °C -9.3 °C 34533.8 hPa ESE 8.2 km/h 24.3 km/h 61 % 0 mm
00:12 -4.9 °C -9.3 °C 34533.8 hPa ESE 8.9 km/h 16.3 km/h 61 % 0 mm
00:17 -4.8 °C -9.3 °C 34533.8 hPa ESE 7.7 km/h 19.6 km/h 61 % 0 mm
00:22 -4.9 °C -9.3 °C 34533.8 hPa SE 10.1 km/h 19.6 km/h 61 % 0 mm
00:27 -4.9 °C -9.3 °C 34533.8 hPa SE 11.1 km/h 19.6 km/h 61 % 0 mm
00:32 -4.9 °C -9.3 °C 34533.8 hPa SSE 8.2 km/h 16.3 km/h 61 % 0 mm
00:37 -5 °C -9.3 °C 34533.8 hPa SSW 8.2 km/h 16.3 km/h 62 % 0 mm
00:43 -5.2 °C -9.3 °C 34533.8 hPa SSW 9 km/h 14 km/h 63 % 0 mm
00:48 -5.3 °C -9.3 °C 34533.8 hPa SW 9.8 km/h 15 km/h 64 % 0 mm
00:53 -5.4 °C -9.2 °C 34533.8 hPa SW 9.7 km/h 15 km/h 65 % 0 mm
00:58 -5.5 °C -9.2 °C 34533.8 hPa WSW 8 km/h 12.2 km/h 66 % 0 mm
01:03 -5.6 °C -9.2 °C 34533.8 hPa SW 6 km/h 9.3 km/h 67 % 0 mm
01:08 -5.7 °C -9.1 °C 34533.8 hPa SSW 2.1 km/h 7.6 km/h 68 % 0 mm
01:13 -5.8 °C -9.1 °C 34533.8 hPa South 1.8 km/h 9.8 km/h 69 % 0 mm
01:18 -5.9 °C -9.1 °C 34533.8 hPa South 1.6 km/h 9.8 km/h 70 % 0 mm
01:23 -6.1 °C -9.2 °C 34533.8 hPa Calm     70 % 0 mm
01:28 -6.2 °C -9.1 °C 34533.8 hPa Calm     72 % 0 mm
01:33 -6.2 °C -9.1 °C 34533.8 hPa Calm     72 % 0 mm
01:38 -6.4 °C -9.1 °C 34533.8 hPa Calm     74 % 0 mm
01:43 -6.4 °C -9.1 °C 34533.8 hPa NE 1.3 km/h 8.9 km/h 74 % 0 mm
01:48 -6.6 °C -9.2 °C 34533.8 hPa NE 1.6 km/h 8.9 km/h 74 % 0 mm
01:53 -6.6 °C -9.1 °C 34533.8 hPa West 1 km/h 6.4 km/h 75 % 0 mm
01:58 -6.7 °C -9.1 °C 34533.8 hPa WNW 2.1 km/h 6.9 km/h 76 % 0 mm
02:03 -6.7 °C -9.1 °C 34533.8 hPa WNW 1.6 km/h 6.9 km/h 76 % 0 mm
02:08 -6.7 °C -8.9 °C 34533.8 hPa NW 0.5 km/h 6.9 km/h 78 % 0 mm
02:13 -6.8 °C -9 °C 34533.8 hPa NW 2.6 km/h 8.9 km/h 78 % 0 mm
02:18 -6.8 °C -9 °C 34533.8 hPa NW 4.7 km/h 8.9 km/h 78 % 0 mm
02:23 -6.8 °C -8.9 °C 34533.8 hPa NW 2.6 km/h 6.4 km/h 79 % 0 mm
02:28 -6.8 °C -8.9 °C 34533.8 hPa West 2.6 km/h 11.1 km/h 79 % 0 mm
02:33 -6.8 °C -8.8 °C 34533.8 hPa West 2.1 km/h 11.1 km/h 80 % 0 mm
02:38 -6.8 °C -8.8 °C 34533.8 hPa NW 2.6 km/h 8 km/h 80 % 0 mm
02:43 -6.8 °C -8.8 °C 34533.8 hPa NW 2.3 km/h 8 km/h 80 % 0 mm
02:48 -6.8 °C -8.8 °C 34533.8 hPa Calm     80 % 0 mm
02:53 -6.8 °C -8.8 °C 34533.8 hPa Calm     80 % 0 mm
02:58 -6.8 °C -8.7 °C 34533.8 hPa Calm     81 % 0 mm
03:03 -6.8 °C -8.7 °C 34533.8 hPa Calm     81 % 0 mm
03:08 -6.8 °C -8.7 °C 34533.8 hPa Calm     81 % 0 mm
03:13 -6.8 °C -8.7 °C 34533.8 hPa Calm     81 % 0 mm
03:18 -6.8 °C -8.6 °C 34533.8 hPa Calm     82 % 0 mm
03:23 -6.8 °C -8.6 °C 34533.8 hPa Calm   2.3 km/h 82 % 0 mm
03:28 -6.8 °C -8.6 °C 34533.8 hPa ENE 1 km/h 5.1 km/h 82 % 0 mm
03:33 -6.8 °C -8.6 °C 34533.8 hPa ENE 1 km/h 5.1 km/h 82 % 0 mm
03:38 -6.8 °C -8.6 °C 34533.8 hPa WSW 0.5 km/h 6.4 km/h 82 % 0 mm
03:43 -6.8 °C -8.6 °C 34533.8 hPa South 1.8 km/h 8 km/h 82 % 0 mm
03:48 -6.8 °C -8.6 °C 34533.8 hPa ENE 1.3 km/h 8 km/h 82 % 0 mm
03:53 -6.8 °C -8.5 °C 34533.8 hPa Calm     83 % 0 mm
03:58 -6.9 °C -8.6 °C 34533.8 hPa Calm     83 % 0 mm
04:03 -6.9 °C -8.6 °C 34533.8 hPa Calm     83 % 0 mm
04:08 -6.9 °C -8.6 °C 34533.8 hPa Calm     83 % 0 mm
04:13 -6.9 °C -8.6 °C 34533.8 hPa Calm     83 % 0 mm
04:18 -6.9 °C -8.5 °C 34533.8 hPa Calm     84 % 0 mm
04:23 -7 °C -8.6 °C 34533.8 hPa Calm     84 % 0 mm
04:29 -7 °C -8.6 °C 34533.8 hPa Calm     84 % 0 mm
04:34 -7.1 °C -8.5 °C 34533.8 hPa Calm     85 % 0 mm
04:39 -7.1 °C -8.5 °C 34533.8 hPa Calm     85 % 0 mm
04:44 -7.1 °C -8.6 °C 34533.8 hPa Calm     85 % 0 mm
04:49 -7.1 °C -8.4 °C 34533.8 hPa Calm     86 % 0 mm
04:54 -7.2 °C -8.6 °C 34533.8 hPa Calm     85 % 0 mm
04:59 -7.2 °C -8.6 °C 34533.8 hPa Calm     86 % 0 mm
05:04 -7.2 °C -8.6 °C 34533.8 hPa Calm     86 % 0 mm
05:09 -7.3 °C -8.6 °C 34533.8 hPa Calm     86 % 0 mm
05:14 -7.3 °C -8.6 °C 34533.8 hPa Calm     87 % 0 mm
05:23 -7.4 °C -8.7 °C 34496.6 hPa Calm     87 % 0 mm
05:28 -7.5 °C -8.7 °C 34496.6 hPa Calm     87 % 0 mm
05:33 -7.6 °C -8.8 °C 34496.6 hPa Calm     87 % 0 mm
05:38 -7.7 °C -8.9 °C 34496.6 hPa Calm     87 % 0 mm
05:43 -7.7 °C -8.8 °C 34496.6 hPa Calm   3.4 km/h 88 % 0 mm
05:48 -7.8 °C -9 °C 34533.8 hPa Calm   3.4 km/h 87 % 0 mm
05:53 -7.8 °C -9.1 °C 34533.8 hPa ESE 0.3 km/h 5.1 km/h 87 % 0 mm
05:58 -7.9 °C -9.1 °C 34533.8 hPa ESE 0.3 km/h 5.1 km/h 88 % 0 mm
06:03 -8 °C -9.1 °C 34533.8 hPa ESE 0.5 km/h 5.1 km/h 88 % 0 mm
06:04 -8.1 °C -9.2 °C 34533.8 hPa ESE 0.5 km/h 5.1 km/h 88 % 0 mm
06:09 -8.1 °C -9.2 °C 34533.8 hPa ESE 0.5 km/h 5.1 km/h 88 % 0 mm
06:14 -8.1 °C -9.2 °C 34533.8 hPa Calm   2.9 km/h 88 % 0 mm
06:19 -8.2 °C -9.2 °C 34533.8 hPa ESE 0.5 km/h 5.6 km/h 89 % 0 mm
06:24 -8.2 °C -9.2 °C 34533.8 hPa ESE 0.5 km/h 5.6 km/h 89 % 0 mm
06:29 -8.2 °C -9.2 °C 34533.8 hPa Calm     89 % 0 mm
06:34 -8.2 °C -9.1 °C 34533.8 hPa Calm     90 % 0 mm
06:39 -8.2 °C -9.1 °C 34533.8 hPa Calm     90 % 0 mm
06:44 -8.2 °C -9.1 °C 34533.8 hPa Calm     90 % 0 mm
06:49 -8.2 °C -9.1 °C 34533.8 hPa Calm     90 % 0 mm
06:54 -8.2 °C -9.1 °C 34533.8 hPa Calm     90 % 0 mm
06:59 -8.2 °C -9.1 °C 34533.8 hPa Calm     90 % 0 mm
07:04 -8.2 °C -9.1 °C 34533.8 hPa Calm     90 % 0 mm
07:09 -8.1 °C -8.9 °C 34533.8 hPa Calm     91 % 0 mm
07:14 -8.1 °C -8.9 °C 34533.8 hPa Calm     91 % 0 mm
07:19 -8 °C -8.8 °C 34533.8 hPa Calm     91 % 0 mm
07:24 -7.8 °C -8.6 °C 34533.8 hPa Calm     92 % 0 mm
07:29 -7.8 °C -8.6 °C 34533.8 hPa Calm     92 % 0 mm
07:34 -7.8 °C -8.6 °C 34567.7 hPa Calm     91 % 0 mm
07:39 -7.7 °C -8.5 °C 34567.7 hPa Calm     91 % 0 mm
07:44 -7.6 °C -8.4 °C 34567.7 hPa Calm     91 % 0 mm
07:49 -7.4 °C -8.3 °C 34567.7 hPa ESE 0.5 km/h 4.2 km/h 91 % 0 mm
07:54 -7.4 °C -8.2 °C 34567.7 hPa ESE 1.6 km/h 6.4 km/h 91 % 0 mm
07:59 -7.2 °C -8.2 °C 34567.7 hPa ESE 2.1 km/h 7.6 km/h 90 % 0 mm
08:04 -7.1 °C -8 °C 34567.7 hPa ESE 2.1 km/h 7.6 km/h 90 % 0 mm
08:09 -6.9 °C -8 °C 34567.7 hPa ESE 1.8 km/h 6.9 km/h 89 % 0 mm
08:14 -6.9 °C -7.9 °C 34567.7 hPa ESE 1 km/h 4.2 km/h 89 % 0 mm
08:19 -6.8 °C -7.9 °C 34567.7 hPa ESE 0.3 km/h 4.2 km/h 88 % 0 mm
08:24 -6.6 °C -7.8 °C 34567.7 hPa ESE 1 km/h 5.6 km/h 87 % 0 mm
08:29 -6.4 °C -7.7 °C 34567.7 hPa ESE 2.1 km/h 5.6 km/h 87 % 0 mm
08:34 -6.3 °C -7.8 °C 34567.7 hPa East 1.3 km/h 5.1 km/h 85 % 0 mm
08:39 -6.1 °C -7.6 °C 34567.7 hPa East 0.3 km/h 3.4 km/h 85 % 0 mm
08:44 -5.9 °C -7.4 °C 34567.7 hPa SSE 1 km/h 6.9 km/h 84 % 0 mm
08:49 -5.6 °C -7.3 °C 34601.5 hPa SSE 3.1 km/h 7.6 km/h 83 % 0 mm
08:54 -5.3 °C -7.2 °C 34601.5 hPa SE 5.5 km/h 11.1 km/h 81 % 0 mm
08:59 -5.2 °C -7.2 °C 34601.5 hPa ESE 3.9 km/h 11.1 km/h 80 % 0 mm
09:04 -5 °C -7.3 °C 34601.5 hPa SE 0.8 km/h 6.4 km/h 78 % 0 mm
09:09 -4.8 °C -7.2 °C 34601.5 hPa ENE 0.5 km/h 5.1 km/h 77 % 0 mm
09:14 -4.6 °C -7.2 °C 34601.5 hPa ESE 2.6 km/h 6.9 km/h 75 % 0 mm
09:19 -4.4 °C -7.3 °C 34601.5 hPa SE 2.9 km/h 6.9 km/h 73 % 0 mm
09:24 -4.3 °C -7.3 °C 34601.5 hPa SE 2.3 km/h 8 km/h 72 % 0 mm
09:29 -4.1 °C -7.3 °C 34601.5 hPa ESE 2.9 km/h 8 km/h 70 % 0 mm
09:34 -4.1 °C -7.4 °C 34601.5 hPa SE 1.8 km/h 6.9 km/h 69 % 0 mm
09:39 -3.9 °C -7.3 °C 34601.5 hPa SSE 2.9 km/h 8.9 km/h 69 % 0 mm
09:44 -3.7 °C -7.3 °C 34601.5 hPa SE 4.7 km/h 9.3 km/h 68 % 0 mm
09:49 -3.6 °C -7.3 °C 34601.5 hPa SE 5.5 km/h 11.1 km/h 66 % 0 mm
09:54 -3.5 °C -7.6 °C 34601.5 hPa SE 6.3 km/h 12.2 km/h 64 % 0 mm
09:59 -3.3 °C -7.7 °C 34601.5 hPa ESE 5 km/h 12.2 km/h 62 % 0 mm
10:04 -3.3 °C -8.6 °C 34601.5 hPa ESE 6.4 km/h 16.9 km/h 56 % 0 mm
10:09 -3.3 °C -8.1 °C 34601.5 hPa ESE 8.5 km/h 16.9 km/h 59 % 0 mm
10:14 -3.1 °C -7.9 °C 34601.5 hPa ESE 6.9 km/h 18.7 km/h 59 % 0 mm
10:19 -3.1 °C -8.2 °C 34567.7 hPa ESE 7.7 km/h 18.7 km/h 57 % 0 mm
10:24 -2.9 °C -8.1 °C 34567.7 hPa ESE 9.7 km/h 16.3 km/h 57 % 0 mm
10:29 -2.9 °C -8.1 °C 34567.7 hPa ESE 8.9 km/h 16.3 km/h 57 % 0 mm
10:34 -2.9 °C -8.2 °C 34601.5 hPa ESE 6.8 km/h 15.6 km/h 56 % 0 mm
10:39 -2.8 °C -8.2 °C 34601.5 hPa ESE 7.2 km/h 15.6 km/h 55 % 0 mm
10:44 -2.7 °C -8.1 °C 34601.5 hPa ESE 9 km/h 16.3 km/h 55 % 0 mm
10:49 -2.6 °C -8.2 °C 34601.5 hPa ESE 9.7 km/h 16.3 km/h 54 % 0 mm
10:54 -2.5 °C -8.1 °C 34601.5 hPa ESE 7.6 km/h 15.6 km/h 54 % 0 mm
10:59 -2.5 °C -8.1 °C 34601.5 hPa ESE 5.5 km/h 11.1 km/h 54 % 0 mm
11:04 -2.4 °C -8.4 °C 34601.5 hPa ESE 6.3 km/h 15 km/h 52 % 0 mm
11:09 -2.4 °C -8.4 °C 34601.5 hPa East 6.4 km/h 15 km/h 52 % 0 mm
11:14 -2.4 °C -8.5 °C 34601.5 hPa East 5.6 km/h 11.1 km/h 51 % 0 mm
11:19 -2.4 °C -8.4 °C 34567.7 hPa East 5.6 km/h 14 km/h 52 % 0 mm
11:24 -2.3 °C -8.3 °C 34567.7 hPa East 5.1 km/h 15.6 km/h 52 % 0 mm
11:29 -2.3 °C -8.3 °C 34567.7 hPa ENE 7.7 km/h 16.3 km/h 52 % 0 mm
11:34 -2.2 °C -8.4 °C 34567.7 hPa ENE 9.7 km/h 16.3 km/h 51 % 0 mm
11:39 -2.3 °C -8.3 °C 34567.7 hPa East 7.2 km/h 16.3 km/h 52 % 0 mm
11:44 -2.2 °C -8.4 °C 34567.7 hPa ESE 7.7 km/h 16.3 km/h 51 % 0 mm
11:49 -2.1 °C -8.1 °C 34533.8 hPa SE 8 km/h 15.6 km/h 52 % 0 mm
11:54 -1.9 °C -8.1 °C 34533.8 hPa ESE 6.9 km/h 14.5 km/h 51 % 0 mm
11:59 -1.9 °C -8.1 °C 34533.8 hPa SE 8.2 km/h 19.6 km/h 51 % 0 mm
12:04 -1.8 °C -8 °C 34533.8 hPa SSE 8.5 km/h 19.6 km/h 51 % 0 mm
12:09 -1.8 °C -8.3 °C 34533.8 hPa SSW 5.1 km/h 16.9 km/h 49 % 0 mm
12:14 -1.7 °C -8.1 °C 34533.8 hPa SSE 6 km/h 16.9 km/h 50 % 0 mm
12:19 -1.6 °C -8 °C 34533.8 hPa SSE 8.2 km/h 15 km/h 50 % 0 mm
12:24 -1.7 °C -8.3 °C 34533.8 hPa SW 6.8 km/h 15 km/h 49 % 0 mm
12:29 -1.6 °C -8.4 °C 34533.8 hPa East 6.9 km/h 15 km/h 48 % 0 mm
12:34 -1.7 °C -8.4 °C 34567.7 hPa East 5.6 km/h 15 km/h 48 % 0 mm
12:39 -1.7 °C -8.3 °C 34567.7 hPa ESE 4.7 km/h 9.3 km/h 49 % 0 mm
12:44 -1.6 °C -8.3 °C 34567.7 hPa East 6 km/h 15 km/h 48 % 0 mm
12:49 -1.6 °C -8.6 °C 34533.8 hPa ENE 8.2 km/h 16.9 km/h 47 % 0 mm
12:52 -1.7 °C -8.4 °C 34533.8 hPa East 8.5 km/h 16.9 km/h 48 % 0 mm
12:57 -1.6 °C -8.5 °C 34533.8 hPa East 8 km/h 14 km/h 47 % 0 mm
13:02 -1.7 °C -8.6 °C 34533.8 hPa East 5.1 km/h 10.3 km/h 47 % 0 mm
13:07 -1.4 °C -8.2 °C 34496.6 hPa SE 5.6 km/h 12.7 km/h 48 % 0 mm
13:12 -1.3 °C -8.1 °C 34496.6 hPa SE 8.9 km/h 15 km/h 48 % 0 mm
13:17 -1.3 °C -8.2 °C 34496.6 hPa ESE 8.5 km/h 15 km/h 47 % 0 mm
13:22 -1.3 °C -8.2 °C 34533.8 hPa West 6.9 km/h 15 km/h 47 % 0 mm
13:27 -1.2 °C -8.2 °C 34533.8 hPa West 8 km/h 15 km/h 47 % 0 mm
13:32 -1.1 °C -8.2 °C 34533.8 hPa SW 8.2 km/h 15 km/h 46 % 0 mm
13:37 -0.9 °C -8.3 °C 34496.6 hPa South 6.4 km/h 15 km/h 45 % 0 mm
13:42 -0.9 °C -8.5 °C 34496.6 hPa SSE 6.8 km/h 12.2 km/h 44 % 0 mm
13:47 -0.9 °C -8.5 °C 34496.6 hPa SSE 5.6 km/h 10.3 km/h 44 % 0 mm
13:52 -0.9 °C -8.4 °C 34567.7 hPa SSE 4.3 km/h 14.5 km/h 44 % 0 mm
13:57 -0.8 °C -8.6 °C 34567.7 hPa SSE 7.2 km/h 19.2 km/h 43 % 0 mm
14:02 -0.8 °C -8.6 °C 34567.7 hPa South 9 km/h 19.2 km/h 43 % 0 mm
14:07 -0.7 °C -8.7 °C 34533.8 hPa South 8 km/h 16.9 km/h 42 % 0 mm
14:12 -0.6 °C -8.8 °C 34533.8 hPa SE 7.7 km/h 16.9 km/h 41 % 0 mm
14:17 -0.7 °C -8.7 °C 34533.8 hPa South 6.9 km/h 14 km/h 42 % 0 mm
14:22 -0.6 °C -8.6 °C 34533.8 hPa WSW 6.3 km/h 12.7 km/h 42 % 0 mm
14:27 -0.7 °C -8.9 °C 34533.8 hPa South 5 km/h 9.3 km/h 41 % 0 mm
14:32 -0.7 °C -8.9 °C 34496.6 hPa East 6 km/h 15 km/h 41 % 0 mm
14:37 -0.6 °C -8.8 °C 34496.6 hPa SE 8 km/h 15 km/h 41 % 0 mm
14:42 -0.6 °C -8.8 °C 34496.6 hPa South 10.1 km/h 24.8 km/h 41 % 0 mm
14:47 -0.5 °C -8.9 °C 34496.6 hPa South 10.1 km/h 24.8 km/h 40 % 0 mm
14:52 -0.5 °C -8.9 °C 34496.6 hPa SSW 8 km/h 15 km/h 40 % 0 mm
14:57 -0.6 °C -9 °C 34496.6 hPa WSW 9.8 km/h 16.3 km/h 40 % 0 mm
15:02 -0.5 °C -9.2 °C 34476.3 hPa WSW 10.1 km/h 16.3 km/h 39 % 0 mm
15:07 -0.5 °C -8.9 °C 34476.3 hPa ESE 8.2 km/h 20.3 km/h 40 % 0 mm
15:12 -0.4 °C -8.9 °C 34476.3 hPa ESE 8.9 km/h 20.3 km/h 40 % 0 mm
15:17 -0.4 °C -9.1 °C 34496.6 hPa SSE 7.2 km/h 15.6 km/h 39 % 0 mm
15:22 -0.3 °C -9 °C 34496.6 hPa SE 4.2 km/h 12.7 km/h 39 % 0 mm
15:27 -0.3 °C -9 °C 34496.6 hPa SSE 4.7 km/h 12.7 km/h 39 % 0 mm
15:32 -0.3 °C -9 °C 34476.3 hPa WSW 6.8 km/h 12.2 km/h 39 % 0 mm
15:37 -0.4 °C -9.1 °C 34476.3 hPa SW 6.8 km/h 16.9 km/h 39 % 0 mm
15:42 -0.4 °C -9.1 °C 34476.3 hPa ESE 8 km/h 16.9 km/h 39 % 0 mm
15:47 -0.4 °C -9.1 °C 34476.3 hPa SE 7.6 km/h 16.3 km/h 39 % 0 mm
15:52 -0.3 °C -9 °C 34476.3 hPa South 5.5 km/h 11.1 km/h 39 % 0 mm
15:57 -0.3 °C -8.9 °C 34476.3 hPa SSE 6 km/h 12.2 km/h 39 % 0 mm
16:02 -0.3 °C -8.9 °C 34476.3 hPa East 5.6 km/h 12.2 km/h 39 % 0 mm
16:07 -0.3 °C -8.9 °C 34476.3 hPa SE 6.8 km/h 16.9 km/h 39 % 0 mm
16:08 -0.3 °C -8.9 °C 34476.3 hPa SE 6.8 km/h 16.9 km/h 39 % 0 mm
16:13 -0.2 °C -8.9 °C 34476.3 hPa South 8.2 km/h 16.9 km/h 39 % 0 mm
16:18 -0.2 °C -9.1 °C 34476.3 hPa SSE 8.9 km/h 14.5 km/h 38 % 0 mm
16:23 -0.3 °C -9.2 °C 34476.3 hPa SE 5.5 km/h 14.5 km/h 38 % 0 mm
16:28 -0.3 °C -9.2 °C 34476.3 hPa South 5.1 km/h 14.5 km/h 38 % 0 mm
16:33 -0.3 °C -9.2 °C 34476.3 hPa SSW 8 km/h 14.5 km/h 38 % 0 mm
16:38 -0.3 °C -9.2 °C 34476.3 hPa SSW 4.7 km/h 11.1 km/h 38 % 0 mm
16:43 -0.2 °C -9.1 °C 34476.3 hPa SW 2.6 km/h 7.6 km/h 38 % 0 mm
16:48 -0.3 °C -9.2 °C 34476.3 hPa SSW 2.1 km/h 7.6 km/h 38 % 0 mm
16:53 -0.2 °C -8.8 °C 34476.3 hPa SSW 0.8 km/h 5.1 km/h 39 % 0 mm
16:58 -0.1 °C -9.1 °C 34476.3 hPa South 2.1 km/h 10.3 km/h 38 % 0 mm
17:03 -0.2 °C -9.1 °C 34476.3 hPa South 5.5 km/h 10.3 km/h 38 % 0 mm
17:08 -0.2 °C -9.1 °C 34476.3 hPa SSE 8 km/h 16.3 km/h 38 % 0 mm
17:13 -0.2 °C -9.1 °C 34476.3 hPa SE 9 km/h 16.3 km/h 38 % 0 mm
17:18 -0.2 °C -9.1 °C 34476.3 hPa ESE 9 km/h 15 km/h 38 % 0 mm
17:23 -0.2 °C -9.1 °C 34476.3 hPa ESE 9 km/h 15.6 km/h 38 % 0 mm
17:28 -0.3 °C -9.2 °C 34476.3 hPa SE 5.6 km/h 15.6 km/h 38 % 0 mm
17:29 -0.3 °C -9.2 °C 34476.3 hPa SE 5.6 km/h 15.6 km/h 38 % 0 mm
17:34 -0.2 °C -9.1 °C 34476.3 hPa South 4.3 km/h 10.3 km/h 38 % 0 mm
17:39 -0.3 °C -9.2 °C 34476.3 hPa South 5.6 km/h 11.1 km/h 38 % 0 mm
17:44 -0.4 °C -9.3 °C 34476.3 hPa SSE 5.1 km/h 11.1 km/h 38 % 0 mm
17:49 -0.4 °C -9.3 °C 34476.3 hPa SSE 3.1 km/h 7.6 km/h 38 % 0 mm
17:54 -0.6 °C -9.4 °C 34476.3 hPa SE 1.6 km/h 7.6 km/h 38 % 0 mm
17:59 -0.8 °C -9.4 °C 34476.3 hPa ESE 3.7 km/h 12.7 km/h 39 % 0 mm
18:04 -0.9 °C -9.8 °C 34428.8 hPa ESE 6.3 km/h 14.5 km/h 38 % 0 mm
18:09 -1.2 °C -9.8 °C 34428.8 hPa SSE 6.3 km/h 14.5 km/h 39 % 0 mm
18:14 -1.4 °C -9.9 °C 34428.8 hPa South 4.3 km/h 9.8 km/h 39 % 0 mm
18:19 -1.6 °C -10.2 °C 34476.3 hPa SSE 2.9 km/h 8 km/h 39 % 0 mm
18:24 -1.9 °C -9.9 °C 34476.3 hPa SSE 1.8 km/h 8 km/h 41 % 0 mm
18:29 -2.1 °C -10.1 °C 34476.3 hPa NW 1.8 km/h 8.9 km/h 41 % 0 mm
18:34 -2.4 °C -10.2 °C 34476.3 hPa NW 1.8 km/h 8.9 km/h 42 % 0 mm
18:39 -2.7 °C -10.2 °C 34476.3 hPa WNW 1.3 km/h 6.4 km/h 43 % 0 mm
18:44 -2.8 °C -10.2 °C 34476.3 hPa NW 2.9 km/h 6.4 km/h 44 % 0 mm
18:49 -3.1 °C -10.2 °C 34428.8 hPa NNW 2.6 km/h 6.4 km/h 45 % 0 mm
18:54 -3.3 °C -9.9 °C 34428.8 hPa NNW 1.8 km/h 6.4 km/h 48 % 0 mm
18:59 -3.4 °C -9.6 °C 34428.8 hPa NW 1.3 km/h 6.4 km/h 50 % 0 mm
19:04 -3.6 °C -9.8 °C 34428.8 hPa NW 0.3 km/h 3.4 km/h 50 % 0 mm
19:09 -3.7 °C -9.6 °C 34428.8 hPa NW 0.3 km/h 3.4 km/h 52 % 0 mm
19:14 -3.9 °C -9.6 °C 34428.8 hPa NW 0.3 km/h 5.1 km/h 53 % 0 mm
19:19 -4.1 °C -9.3 °C 34476.3 hPa WNW 1 km/h 8 km/h 56 % 0 mm
19:24 -4.2 °C -9.4 °C 34476.3 hPa WNW 2.3 km/h 8 km/h 56 % 0 mm
19:29 -4.3 °C -9.5 °C 34476.3 hPa NNW 3.1 km/h 7.6 km/h 56 % 0 mm
19:34 -4.5 °C -9.2 °C 34476.3 hPa NNW 3.4 km/h 8.9 km/h 59 % 0 mm
19:39 -4.6 °C -9.3 °C 34476.3 hPa NNW 3.4 km/h 8.9 km/h 59 % 0 mm
19:44 -4.8 °C -9.2 °C 34476.3 hPa NNW 1.8 km/h 8 km/h 61 % 0 mm
19:54 -5.1 °C -9.2 °C 34428.8 hPa NW 0.8 km/h 7.6 km/h 63 % 0 mm
19:59 -5.2 °C -9.1 °C 34428.8 hPa WNW 1.3 km/h 8.9 km/h 64 % 0 mm
20:04 -5.3 °C -9.1 °C 34476.3 hPa WNW 1.6 km/h 8.9 km/h 65 % 0 mm
20:09 -5.4 °C -9 °C 34476.3 hPa WNW 0.3 km/h 5.1 km/h 67 % 0 mm
20:14 -5.6 °C -9.1 °C 34476.3 hPa Calm     67 % 0 mm
20:19 -5.7 °C -9.1 °C 34476.3 hPa Calm     68 % 0 mm
20:24 -5.8 °C -9.1 °C 34476.3 hPa Calm     69 % 0 mm
20:34 -6 °C -9.2 °C 34476.3 hPa Calm     70 % 0 mm
20:39 -6.1 °C -9.1 °C 34476.3 hPa Calm     71 % 0 mm
20:44 -6.2 °C -9.2 °C 34476.3 hPa Calm     71 % 0 mm
20:49 -6.3 °C -9.2 °C 34496.6 hPa Calm     72 % 0 mm
20:54 -6.3 °C -9.2 °C 34496.6 hPa Calm     72 % 0 mm
20:59 -6.4 °C -9.2 °C 34496.6 hPa Calm     73 % 0 mm
21:04 -6.5 °C -9.2 °C 34496.6 hPa Calm     74 % 0 mm
21:09 -6.6 °C -9.2 °C 34496.6 hPa Calm     74 % 0 mm
21:14 -6.6 °C -9.1 °C 34496.6 hPa Calm     75 % 0 mm
21:19 -6.7 °C -9.2 °C 34496.6 hPa Calm     75 % 0 mm
21:24 -6.7 °C -9.1 °C 34496.6 hPa Calm     76 % 0 mm
21:29 -6.8 °C -9.2 °C 34496.6 hPa NW 0.3 km/h 4.2 km/h 76 % 0 mm
21:34 -6.8 °C -9 °C 34496.6 hPa NW 0.3 km/h 4.2 km/h 78 % 0 mm
21:39 -6.9 °C -9.1 °C 34496.6 hPa Calm     78 % 0 mm
21:44 -6.9 °C -9.1 °C 34496.6 hPa Calm     78 % 0 mm
21:49 -7 °C -9.2 °C 34533.8 hPa Calm     78 % 0 mm
21:54 -7.1 °C -9.2 °C 34533.8 hPa Calm     78 % 0 mm
22:00 -7.1 °C -9.2 °C 34533.8 hPa Calm   3.4 km/h 79 % 0 mm
22:05 -7.2 °C -9.3 °C 34533.8 hPa Calm   3.4 km/h 79 % 0 mm
22:10 -7.2 °C -9.2 °C 34533.8 hPa Calm     80 % 0 mm
22:15 -7.2 °C -9.2 °C 34533.8 hPa Calm     80 % 0 mm
22:20 -7.3 °C -9.2 °C 34533.8 hPa Calm     80 % 0 mm
22:25 -7.3 °C -9.2 °C 34533.8 hPa Calm     81 % 0 mm
22:30 -7.4 °C -9.2 °C 34533.8 hPa Calm     81 % 0 mm
22:35 -7.4 °C -9.2 °C 34533.8 hPa Calm     81 % 0 mm
22:40 -7.4 °C -9.3 °C 34533.8 hPa Calm     81 % 0 mm
22:45 -7.4 °C -9.3 °C 34533.8 hPa Calm     81 % 0 mm
22:50 -7.5 °C -9.3 °C 34533.8 hPa Calm     81 % 0 mm
22:55 -7.6 °C -9.4 °C 34533.8 hPa Calm     81 % 0 mm
23:00 -7.6 °C -9.3 °C 34533.8 hPa Calm     82 % 0 mm
23:05 -7.7 °C -9.4 °C 34533.8 hPa Calm     82 % 0 mm
23:10 -7.7 °C -9.4 °C 34533.8 hPa Calm     82 % 0 mm
23:15 -7.7 °C -9.4 °C 34533.8 hPa Calm     82 % 0 mm
23:20 -7.8 °C -9.5 °C 34533.8 hPa Calm     82 % 0 mm
23:25 -7.8 °C -9.5 °C 34533.8 hPa Calm     83 % 0 mm
23:30 -7.8 °C -9.5 °C 34533.8 hPa Calm     83 % 0 mm
23:35 -7.8 °C -9.5 °C 34533.8 hPa Calm     83 % 0 mm
23:40 -7.8 °C -9.5 °C 34533.8 hPa Calm     83 % 0 mm
23:45 -7.9 °C -9.4 °C 34533.8 hPa Calm     84 % 0 mm
23:50 -7.9 °C -9.4 °C 34533.8 hPa Calm     84 % 0 mm
23:52 -7.9 °C -9.3 °C 34533.8 hPa Calm     85 % 0 mm
23:57 -7.9 °C -9.3 °C 34533.8 hPa Calm     85 % 0 mm
Vremenska postaja Senovo
Podatki zbrani iz Weather Underground - 3 mb

Script developed by  Jim McMurry - jmcmurry@mwt.net Adapted for the template by  Wim van der Kuil - Leuven-Template.eu

Vremenski podatki so objavljeni na:

European Weather Network

WeatherCloud

Weather Underground

AWEKAS

HAMweather, WeatherForYou, PWS Weather

MapView

Geostik

Slovenia weather network

Oprema, ki se uporablja:

Vremenski program
Cumulus

Vremenski server
Asus

Cumulus

Asus